Emma Linda Quaglia

CAMBIASO RISSO RUNNING TEAM GE
15-08-1980


Informazioni sul tesseramento aggiornate al 2018


Condividi con
Seguici su:


È nata a Genova il 15 agosto 1980, 1.60x48kg
Società: Cambiaso Risso Running Team Genova
Allenatore: Claudio Berardelli
Presenze in Nazionale: 10

Ha iniziato a 15 anni nell’Atletica Albaro passando poi al Cus Genova. Colpita da una grave malattia nel corso del 2004, è riuscita a guarire dopo una lotta durata due anni. Nel settembre 2006 ha ricominciato ad allenarsi e in breve ha raggiunto la condizione atletica necessaria per ripresentarsi ad alto livello. Dopo una prima parte di carriera dedicata al cross (tre partecipazioni agli Europei) e alle siepi (un primato italiano, tre titoli tricolori) negli ultimi anni si è dedicata esclusivamente alla maratona. Ai Mondiali di Mosca 2013 un sorprendente sesto posto alle spalle dell’amica e vicecampionessa iridata Valeria Straneo. Nel 2007 si è laureata in medicina all’ateneo del capoluogo ligure, specializzandosi nel 2012 in medicina dello sport, ed è tifosa genoana. Cresciuta con il tecnico Sergio Lo Presti, dal 2011 il suo allenatore è Claudio Berardelli.

Curriculum (3000m siepi): NC: 3 (02-08-09); WCh: 2013 (6/maratona); ECh: 2014 (14/maratona, 1T); WUG: 2004 (36/cross), 2007 (11), 2008 (14/cross); ECup: 2003 (6), 2009 (NC); ECCC: 2008 (44, 6T), 2009 (44, 5T), 2010 (32, 6T); H Mar WCh: 2009 (34).

800 metri

Anno Data Tipo Cr. Cat. Piazz. Prestaz. Vento Città  
200821/09PESF1 su- 1 2:11.71Imperia
200730/05PESF1 se- 1 2:14.03Genova
 

1000 metri

Anno Data Tipo Cr. Cat. Piazz. Prestaz. Vento Città  
200729/04PESF4 se- 1 2:56.40Aulla
 

1500 METRI

Anno Data Tipo Cr. Cat. Piazz. Prestaz. Vento Città  
200915/07PESF2 se- 1 4:21.09Conegliano
200820/09PESF1 su- 1 4:24.51Imperia
200903/07PESF5 su- 1 4:26.59Paderno Di Ponzano
200718/07PESF1 su- 1 4:30.63Alessandria
200828/06PESF1 su- 1 4:32.74Milano
200623/09PESF7 su- 1 4:37.68Pergine
200715/09PESF1 su- 1 4:41.55Genova
200616/09PESF2 su- 1 4:46.56Genova
 

3000 metri

Anno Data Tipo Cr. Cat. Piazz. Prestaz. Vento Città  
200922/07PESF3 su- 1 9:23.95Nembro
200819/04PMSF1 su- 1 9:27.4Genova
200907/02IESF3 su- 1 9:33.69Tampere
200824/02IESF6 su- 1 9:35.73Genova
200823/07PESF3 su- 1 9:38.60Nembro
200806/09PESF1 su- 1 9:40.62Chiuro
200726/05PESF1 su- 1 9:51.10Jesolo
200722/06PESF2 su- 1 9:51.35Alessandria
201018/07PMSF2 su- 1 9:52.2Locorotondo
200708/09PESF1 su- 1 9:58.61Chiuro
200705/05PESF1 su- 1 10:20.78Genova
 

5000 metri

Anno Data Tipo Cr. Cat. Piazz. Prestaz. Vento Città  
200924/06PESF1 se- 1 16:08.81Frascati
201016/05PESF1 su- 1 16:15.26Imperia
200828/09PESF2 su- 1 16:17.73Cesenatico
200927/09PESF1 su- 1 16:24.43Sulmona
200818/05PESF1 su- 1 16:26.48Imperia
200831/05PESF1 su- 1 16:28.29Pisa
201026/09PESF1 su- 1 16:29.33Orvieto
200917/05PESF1 su- 1 16:32.28Imperia
201223/09PESF1 su- 1 16:34.02Fermo
200812/07PESF1 su- 1 16:36.51Palermo
201006/06PESF3 su- 1 16:43.09Firenze
201125/09PESF1 su- 1 16:49.17Macerata
201312/05PESF1 su- 1 16:52.83Genova
201622/05PESF353 su- 1 17:07.13Sesto Fiorentino
201115/05PESF1 su- 1 17:08.86Imperia
201411/05PESF1 su- 1 17:09.15Imperia
200730/09PESF3 su- 1 17:16.57Caorle
201510/05PESF351 su- 1 17:24.49Genova
200720/05PESF1 su- 1 17:24.94Genova
 

10000 metri

Anno Data Tipo Cr. Cat. Piazz. Prestaz. Vento Città  
201002/10PMSF1 se- 1 33:13.8Belluno
200825/04PESF99 su- 1 34:02.37Villanova Asti
200925/04PESF99 su- 1 34:31.58Villanova Di Asti
 

Corsa strada Km 10

Anno Data Tipo Cr. Cat. Piazz. Prestaz. Vento Città  
201415/06SMSF3 su- 1 33:54Telese Terme
201709/09SESF355 su- 1 34:00 Dalmine
201726/02SMSF351 su- 1 34:29 Imperia
201610/09SMSF355 su- 1 34:44Foligno
201314/04SMSF9 se- 1 35:09Dublino
201718/06SMSF355 su- 1 35:09Telese
201331/12SESF59 su- 1 35:14Roma
201131/12SMSF2 su- 1 35:34Roma
 

MARATONINA A

Anno Data Tipo Cr. Cat. Piazz. Prestaz. Vento Città  
201324/03SMSF3 su- 1 1h12:37Milano
200919/04SESF1 su- 1 1h13:09Genova
201416/02SMSF6 su- 1 1h14:00Verona
200911/10SMSF36 su- 1 1h14:11Birmingham
201616/10SMSF351 su- 1 1h14:15Cremona
201719/03SMSF356 su- 1 1h14:51Milano
201721/05SMSF356 se- 1 1h14:56Lugano
201804/02SMSF351 su- 1 1h15:14Portofino
201117/04SMSF2 su- 1 1h15:24Genova
201618/09SMSF355 se- 1 1h15:36Porto
201518/10SMSF355 se- 1 1h15:37Birmingham
201419/10SMSF9 se- 1 1h15:47Birmingham
201703/12SMSF351 su- 1 1h16:28Cagliari
201730/04SMSF351 su- 1 1h17:12Chia
201815/04SMSF351 su- 1 1h17:15Genova
201602/10SMSF351 su- 1 1h17:49Sestri Levante
201205/02SMSF9 su- 1 1h19:36San Blas
 

MARATONINA B

Anno Data Tipo Cr. Cat. Piazz. Prestaz. Vento Città  
201701/10SMSF351 su- 1 1h12:58Breno
 

MARATONA A

Anno Data Tipo Cr. Cat. Piazz. Prestaz. Vento Città  
201218/11SESF4 su- 1 2h28:15Torino
201620/11SMSF3564 se- 1 2h30:57Valencia
201215/04SMSF2 su- 1 2h31:15Milano
201416/08PMSF14 su- 1 2h32:45Zurigo
201108/05SMSF3 su- 1 2h33:23Hannover
201416/11SESF13 su- 1 2h33:52Torino
201705/11SMSF3514 se- 1 2h34:10New York
201310/08PMSF6 su- 1 2h34:16Mosca
201723/04SMSF357 se- 1 2h34:33Vienna
201603/04SMSF359 se- 1 2h35:52Parigi
201529/11SMSF353 su- 1 2h36:00Firenze
201423/03SMSF3 su- 1 2h43:24Roma
 

3000 siepi H76

Anno Data Tipo Cr. Cat. Piazz. Prestaz. Vento Città  
200909/09PESF4 su- 1 9:48.33Parigi
201028/05PESF3 su- 1 10:02.66Dessau
200901/06PESF10 su- 1 10:03.43Rehlingen
201005/06PESF1 su- 1 10:05.41Firenze
200902/08PESF1 su- 1 10:05.65Milano
200820/07PESF1 su- 1 10:07.48Cagliari
200817/05PESF1 su- 1 10:08.97Imperia
200926/09PESF1 su- 1 10:09.17Sulmona
200916/05PESF1 su- 1 10:13.74Imperia
201001/07PESF4 su- 1 10:14.44Grosseto
200827/09PESF1 su- 1 10:16.22Cesenatico
201015/05PESF1 su- 1 10:16.44Imperia
200830/05PESF1 su- 1 10:18.74Pisa
200707/07PESF1 su- 1 10:19.41Alessandria
200728/07PESF2 su- 1 10:23.71Padova
201109/07PESF1 se- 1 10:23.90Genova
200712/08PESF11 su- 1 10:24.67Bangkok
201025/09PESF1 su- 1 10:30.77Orvieto
201219/05PESF1 su- 1 10:34.62Savona
200725/05PESF2 su- 1 10:40.43Jesolo
200729/09PESF2 su- 1 10:48.61Caorle
200719/05PESF1 su- 1 10:54.37Genova
 

Attenzione: le schede-atleti sono composte automaticamente sulla base dei dati inseriti all'interno degli archivi nazionali aggiornati dal 2005 al 19-11-2018. Se un risultato non compare nelle graduatorie, quindi, è segno che lo stesso, con ogni probabilità, non è stato ancora inserito. Il processo di inserimento è di competenza dei Comitati Regionali sul cui territorio ha avuto luogo la manifestazione: eventuali segnalazioni per errori od omissioni, vanno dunque indirizzate agli stessi (potete utilizzare l'elenco con relativi contatti). Considerato però che solo le principali manifestazioni nazionali sono oggetto di inserimenti "in diretta" (sul posto di gara), mentre le altre, incluse le internazionali in programma all'estero, vengono inserite in tempi successivi, è opportuno attendere un ragionevole lasso di tempo prima di procedere ad una segnalazione.

Stickers


Non ventosi

GaraTipoPrestazioneVentoAnnoCittà
800 metriPista 2:11.712008Imperia
1000 metriPista 2:56.402007Aulla
1500 METRIPista 4:21.092009Conegliano
3000 metriPista 9:23.952009Nembro
3000 metriIndoor 9:33.692009Tampere
5000 metriPista 16:08.812009Frascati
10000 metriPista 33:13.82010Belluno
Corsa strada Km 10Strada 33:542014Telese Terme
MARATONINA AStrada 1h12:372013Milano
MARATONINA BStrada 1h12:582017Breno
MARATONA AStrada 2h28:152012Torino
MARATONA APista 2h32:452014Zurigo
3000 siepi H76Pista 9:48.332009Parigi

AnnoTipo mov.CategoriaSocietà
2018RinnovoSeniores 35 FemminileCAMBIASO RISSO RUNNING TEAM GE
2017TrasferimentoSeniores 35 FemminileCAMBIASO RISSO RUNNING TEAM GE
2016RinnovoSeniores 35 FemminileA.S.D. C.U.S. GENOVA
2015RinnovoSeniores 35 FemminileA.S.D. C.U.S. GENOVA
2014RinnovoSeniores FemminileA.S.D. C.U.S. GENOVA
2013RinnovoSeniores FemminileA.S.D. C.U.S. GENOVA
2012RinnovoSeniores FemminileA.S.D. C.U.S. GENOVA
2011RinnovoSeniores FemminileA.S.D. C.U.S. GENOVA
2010RinnovoSeniores FemminileA.S.D. C.U.S. GENOVA
2009RinnovoSeniores FemminileA.S.D. C.U.S. GENOVA
2008RinnovoSeniores FemminileA.S.D. C.U.S. GENOVA
2007RinnovoSeniores FemminileA.S.D. C.U.S. GENOVA
2006NuovoSeniores FemminileC.U.S. GENOVA
2004RinnovoSeniores FemminileC.U.S. GENOVA
2003RinnovoSeniores FemminileC.U.S. GENOVA
2002RinnovoPromesse FemminileC.U.S. GENOVA
2001RinnovoPromesse FemminileC.U.S. GENOVA
2000RinnovoPromesse FemminileC.U.S. GENOVA
1999RinnovoJuniores FemminileC.U.S. GENOVA
1998RinnovoJuniores FemminileC.U.S. GENOVA
AnnoInizioFineTipoDenominazione
201816-0916-09NazionaleCAMPIONATI MONDIALI CORSA IN MONTAGNA - Canillo (A
201826-0813-09RadunoCorsa in Montagna - Sestriere (TO)
201801-0701-07NazionaleCampionati Europei Corsa in Montagna - Skopje
201812-0622-06RadunoCorsa in Montagna - Primiero S.M. Castrozza (TN)
201611-0104-02RadunoMaratona - Kapsabet (Kenia)
201412-0817-08NazionaleCampionati Europei - Zurigo (SUI)
201401-0712-08RadunoMaratona - Saint Moritz (SVI)
201424-0525-06RadunoMaratona - Sestriere (TO)
201417-0217-03RadunoMezzofonfo/Maratona - Kaptagat (KEN)
201313-1220-12RadunoMaratona - Piombino
201310-0818-08NazionaleCampionati Mondiali - Mosca (RUS)
201302-0725-07RadunoMaratona - Saint Moritz
201302-0623-07RadunoMaratona - Saint Moritz
201305-0201-03RadunoMezzofondo Prolungato - Rosa Training Camp - Kenya